Time;durP1;ratioP1;P1;durP2;ratioP2;P2;SDS_P1;SDS_P2;PMS_P1;PMS_P2;Temp;Humidity;BMP_temperature;BMP_pressure;BME280_temperature;BME280_humidity;BME280_pressure;Samples;Min_cycle;Max_cycle;Signal;HPM_P1;HPM_P2
2022/04/13 00:02:03;;;;;;;5.32;2.40;;;12.10;40.40;;;;;;5095658;28;20119;-71
2022/04/13 00:04:29;;;;;;;4.50;2.30;;;12.10;40.70;;;;;;5113910;28;20413;-72
2022/04/13 00:06:54;;;;;;;5.38;2.60;;;12.10;41.00;;;;;;5095469;28;20027;-71
2022/04/13 00:09:20;;;;;;;4.18;2.63;;;12.00;40.90;;;;;;5114242;28;20433;-71
2022/04/13 00:11:46;;;;;;;5.88;2.72;;;12.00;41.20;;;;;;5113594;28;20024;-71
2022/04/13 00:14:12;;;;;;;4.15;2.78;;;12.00;41.40;;;;;;5095538;28;20424;-71
2022/04/13 00:16:39;;;;;;;5.50;2.17;;;11.90;41.30;;;;;;5113709;28;20424;-71
2022/04/13 00:19:05;;;;;;;3.53;2.40;;;11.90;41.30;;;;;;5113088;27;20462;-71
2022/04/13 00:21:31;;;;;;;15.52;9.75;;;11.90;41.60;;;;;;5133788;27;20094;-72
2022/04/13 00:23:57;;;;;;;17.60;10.63;;;11.90;41.60;;;;;;5104422;28;20483;-71
2022/04/13 00:26:24;;;;;;;10.77;6.07;;;11.80;41.90;;;;;;5113990;28;20136;-71
2022/04/13 00:28:49;;;;;;;15.25;7.43;;;11.80;41.70;;;;;;5114151;28;20023;-71
2022/04/13 00:31:15;;;;;;;6.30;4.13;;;11.80;42.00;;;;;;5113351;28;20027;-71
2022/04/13 00:33:41;;;;;;;4.43;2.65;;;11.70;41.80;;;;;;5095365;28;20067;-73
2022/04/13 00:36:07;;;;;;;7.22;3.33;;;11.70;42.10;;;;;;5091791;28;20024;-71
2022/04/13 00:38:33;;;;;;;4.38;3.08;;;11.70;42.70;;;;;;5094884;28;20239;-71
2022/04/13 00:40:59;;;;;;;3.40;2.63;;;11.60;42.30;;;;;;5132801;27;20562;-71
2022/04/13 00:43:25;;;;;;;4.50;2.55;;;11.60;42.30;;;;;;5119942;27;20030;-71
2022/04/13 00:45:52;;;;;;;4.93;2.92;;;11.60;42.40;;;;;;5119787;27;20027;-72
2022/04/13 00:48:42;;;;;;;4.63;2.85;;;11.50;43.00;;;;;;5119634;27;20023;-72
2022/04/13 00:51:08;;;;;;;4.15;2.50;;;11.40;42.80;;;;;;5114049;28;20084;-71
2022/04/13 00:53:35;;;;;;;4.20;2.38;;;11.50;42.90;;;;;;5119448;27;20463;-72
2022/04/13 00:56:03;;;;;;;3.58;2.42;;;11.40;43.00;;;;;;5119342;27;20071;-71
2022/04/13 00:58:33;;;;;;;4.93;2.50;;;11.40;42.90;;;;;;5119644;27;20031;-72
2022/04/13 01:01:02;;;;;;;4.88;1.83;;;11.40;43.20;;;;;;5119691;27;20611;-71
2022/04/13 01:03:29;;;;;;;8.02;2.60;;;11.30;43.00;;;;;;5119315;27;20023;-71
2022/04/13 01:05:55;;;;;;;2.58;1.90;;;11.30;43.50;;;;;;5131676;27;20152;-72
2022/04/13 01:08:21;;;;;;;6.00;2.20;;;11.30;43.30;;;;;;5117372;27;20122;-71
2022/04/13 01:10:49;;;;;;;3.47;2.13;;;11.20;43.50;;;;;;5137375;27;20497;-70
2022/04/13 01:13:17;;;;;;;4.10;2.45;;;11.20;43.60;;;;;;5137560;27;20027;-71
2022/04/13 01:15:43;;;;;;;4.32;2.63;;;11.20;43.90;;;;;;5136526;27;20034;-72
2022/04/13 01:18:09;;;;;;;4.47;2.47;;;11.10;44.00;;;;;;5125301;27;20023;-72
2022/04/13 01:20:39;;;;;;;5.97;3.00;;;11.10;44.00;;;;;;5118906;27;20080;-71
2022/04/13 01:23:06;;;;;;;4.25;2.72;;;11.10;43.90;;;;;;5119059;27;20027;-72
2022/04/13 01:25:32;;;;;;;7.63;3.08;;;11.00;44.50;;;;;;5118937;27;20054;-71
2022/04/13 01:28:01;;;;;;;4.88;2.47;;;11.00;44.40;;;;;;5118496;27;20051;-72
2022/04/13 01:30:27;;;;;;;5.43;2.40;;;11.00;44.50;;;;;;5137305;27;20374;-72
2022/04/13 01:32:53;;;;;;;4.75;2.90;;;11.00;44.90;;;;;;5118608;27;20114;-72
2022/04/13 01:35:22;;;;;;;5.38;2.80;;;11.00;44.70;;;;;;5118633;27;20031;-71
2022/04/13 01:37:48;;;;;;;4.70;2.70;;;11.00;45.10;;;;;;5098321;28;20108;-72
2022/04/13 01:40:13;;;;;;;5.22;2.67;;;10.90;44.90;;;;;;5098188;28;20062;-72
2022/04/13 01:42:39;;;;;;;5.18;3.13;;;10.90;44.90;;;;;;5101351;27;20449;-72
2022/04/13 01:45:05;;;;;;;7.25;2.63;;;10.90;45.30;;;;;;5118642;27;20033;-71
2022/04/13 01:47:31;;;;;;;4.80;2.45;;;10.90;45.20;;;;;;5136432;27;20031;-71
2022/04/13 01:49:59;;;;;;;5.65;2.90;;;10.90;45.50;;;;;;5135159;27;20023;-71
2022/04/13 01:52:25;;;;;;;3.00;2.35;;;10.80;45.50;;;;;;5136909;27;20026;-71
2022/04/13 01:54:51;;;;;;;6.18;2.50;;;10.80;45.40;;;;;;5118370;27;20516;-73
2022/04/13 01:57:19;;;;;;;5.05;2.40;;;10.80;45.40;;;;;;5110969;28;20031;-71
2022/04/13 01:59:45;;;;;;;5.45;3.10;;;10.80;45.80;;;;;;5129631;27;20417;-71
2022/04/13 02:02:11;;;;;;;6.38;3.10;;;10.80;45.80;;;;;;5136641;27;20106;-71
2022/04/13 02:04:36;;;;;;;7.43;2.60;;;10.70;45.80;;;;;;5130171;27;20058;-71
2022/04/13 02:07:02;;;;;;;5.45;2.22;;;10.70;45.90;;;;;;5112965;27;20031;-71
2022/04/13 02:09:28;;;;;;;10.50;3.20;;;10.70;45.70;;;;;;5118195;27;20023;-71
2022/04/13 02:11:54;;;;;;;12.07;3.17;;;10.70;46.00;;;;;;5118117;27;20370;-73
2022/04/13 02:14:20;;;;;;;6.90;3.50;;;10.70;46.30;;;;;;5133350;27;20051;-71
2022/04/13 02:16:46;;;;;;;7.10;3.00;;;10.70;46.30;;;;;;5129023;27;20110;-72
2022/04/13 02:19:12;;;;;;;4.60;3.00;;;10.60;46.50;;;;;;5117715;27;20031;-71
2022/04/13 02:21:39;;;;;;;7.35;2.65;;;10.60;46.40;;;;;;5136083;27;20027;-71
2022/04/13 02:24:06;;;;;;;9.35;3.05;;;10.60;46.50;;;;;;5136370;27;20019;-72
2022/04/13 02:26:32;;;;;;;4.90;2.92;;;10.60;46.60;;;;;;5135797;27;20046;-71
2022/04/13 02:28:57;;;;;;;6.78;3.17;;;10.60;46.50;;;;;;5135900;27;20023;-72
2022/04/13 02:31:23;;;;;;;3.83;2.22;;;10.50;46.50;;;;;;5117961;27;20023;-71
2022/04/13 02:33:53;;;;;;;5.57;2.60;;;10.50;46.40;;;;;;5117366;27;20027;-71
2022/04/13 02:36:18;;;;;;;6.25;3.08;;;10.50;46.60;;;;;;5113825;28;20038;-70
2022/04/13 02:38:44;;;;;;;5.75;3.00;;;10.50;46.70;;;;;;5115408;28;20027;-71
2022/04/13 02:41:10;;;;;;;6.03;3.40;;;10.40;47.00;;;;;;5115168;28;20070;-71
2022/04/13 02:43:36;;;;;;;5.60;3.13;;;10.40;47.10;;;;;;5131355;27;20031;-71
2022/04/13 02:46:02;;;;;;;5.70;3.35;;;10.40;47.00;;;;;;5116964;27;20035;-71
2022/04/13 02:48:28;;;;;;;7.88;3.20;;;10.40;47.40;;;;;;5117184;27;20031;-72
2022/04/13 02:50:53;;;;;;;12.52;3.20;;;10.40;47.20;;;;;;5135629;27;20050;-71
2022/04/13 02:53:19;;;;;;;8.80;2.72;;;10.40;47.20;;;;;;5117220;27;20050;-71
2022/04/13 02:55:45;;;;;;;5.82;3.22;;;10.40;47.00;;;;;;5116855;27;20027;-71
2022/04/13 02:58:11;;;;;;;10.30;2.92;;;10.30;47.00;;;;;;5135632;27;20023;-72
2022/04/13 03:00:37;;;;;;;4.97;2.67;;;10.30;47.00;;;;;;5116383;27;20030;-71
2022/04/13 03:03:03;;;;;;;5.38;2.85;;;10.30;47.20;;;;;;5130272;27;20091;-71
2022/04/13 03:05:29;;;;;;;7.60;3.03;;;10.30;47.30;;;;;;5116084;27;20030;-71
2022/04/13 03:07:55;;;;;;;4.40;2.65;;;10.30;47.40;;;;;;5113359;28;20035;-71
2022/04/13 03:10:21;;;;;;;5.47;3.17;;;10.20;47.50;;;;;;5111288;27;20027;-71
2022/04/13 03:12:47;;;;;;;6.18;3.42;;;10.30;47.60;;;;;;5135570;27;20023;-71
2022/04/13 03:15:14;;;;;;;7.28;3.20;;;10.20;47.50;;;;;;5116734;27;20466;-72
2022/04/13 03:17:40;;;;;;;6.28;3.20;;;10.20;48.00;;;;;;5134964;27;20027;-71
2022/04/13 03:20:06;;;;;;;4.80;3.20;;;10.20;47.80;;;;;;5116761;27;20030;-71
2022/04/13 03:22:32;;;;;;;7.45;3.20;;;10.20;48.00;;;;;;5135064;27;20031;-71
2022/04/13 03:25:02;;;;;;;6.80;3.42;;;10.10;48.00;;;;;;5116238;27;20027;-72
2022/04/13 03:27:28;;;;;;;6.03;3.38;;;10.10;48.10;;;;;;5114100;27;20031;-71
2022/04/13 03:29:54;;;;;;;7.85;3.50;;;10.10;48.10;;;;;;5116578;27;20490;-71
2022/04/13 03:32:20;;;;;;;6.18;3.45;;;10.10;48.20;;;;;;5116444;27;20489;-71
2022/04/13 03:34:45;;;;;;;8.52;3.15;;;10.10;48.20;;;;;;5112794;28;20387;-71
2022/04/13 03:37:11;;;;;;;9.60;3.63;;;10.10;48.40;;;;;;5121258;27;20072;-72
2022/04/13 03:39:37;;;;;;;7.22;2.85;;;10.00;48.30;;;;;;5134632;27;20054;-70
2022/04/13 03:42:03;;;;;;;6.10;2.83;;;10.00;48.30;;;;;;5116140;27;20113;-71
2022/04/13 03:44:29;;;;;;;6.85;3.25;;;10.00;48.40;;;;;;5116163;27;20470;-71
2022/04/13 03:46:55;;;;;;;5.93;3.58;;;10.00;48.50;;;;;;5115935;27;20118;-73
2022/04/13 03:49:24;;;;;;;8.05;3.38;;;10.00;49.00;;;;;;5133785;27;20134;-72
2022/04/13 03:51:50;;;;;;;6.68;3.58;;;10.00;49.00;;;;;;5133494;27;20031;-72
2022/04/13 03:54:16;;;;;;;9.07;3.55;;;10.00;49.00;;;;;;5116083;27;20054;-71
2022/04/13 03:56:45;;;;;;;6.30;3.33;;;9.90;49.10;;;;;;5134187;27;20041;-71
2022/04/13 03:59:11;;;;;;;6.85;2.83;;;9.90;49.10;;;;;;5116096;27;20382;-71
2022/04/13 04:01:37;;;;;;;6.35;3.20;;;9.90;49.00;;;;;;5114844;27;20030;-71
2022/04/13 04:04:03;;;;;;;5.53;2.83;;;9.90;49.10;;;;;;5134237;27;20034;-71
2022/04/13 04:06:28;;;;;;;6.47;3.03;;;9.90;49.10;;;;;;5134157;27;20367;-71
2022/04/13 04:08:54;;;;;;;5.63;3.00;;;9.90;49.70;;;;;;5115956;27;20083;-71
2022/04/13 04:11:20;;;;;;;5.95;3.10;;;9.90;49.80;;;;;;5115993;27;20450;-71
2022/04/13 04:13:46;;;;;;;9.90;3.40;;;9.90;49.20;;;;;;5115141;27;20034;-71
2022/04/13 04:16:12;;;;;;;7.85;3.60;;;9.90;49.20;;;;;;5133978;27;20041;-71
2022/04/13 04:18:38;;;;;;;7.55;3.50;;;9.90;49.40;;;;;;5113114;28;20115;-71
2022/04/13 04:21:04;;;;;;;10.07;3.97;;;9.90;49.30;;;;;;5111381;28;20019;-72
2022/04/13 04:23:29;;;;;;;7.93;3.60;;;9.90;49.50;;;;;;5131093;27;20023;-71
2022/04/13 04:25:55;;;;;;;6.72;3.50;;;9.90;49.60;;;;;;5133403;27;20022;-72
2022/04/13 04:28:21;;;;;;;7.40;3.25;;;9.90;49.70;;;;;;5114572;28;20460;-72
2022/04/13 04:30:47;;;;;;;7.93;4.03;;;9.90;49.70;;;;;;5116065;28;20023;-71
2022/04/13 04:33:13;;;;;;;8.65;4.75;;;9.90;49.80;;;;;;5133420;28;20023;-71
2022/04/13 04:35:39;;;;;;;9.32;3.90;;;9.90;50.00;;;;;;5133890;28;20031;-71
2022/04/13 04:38:05;;;;;;;8.88;4.20;;;9.90;50.00;;;;;;5115461;28;20033;-72
2022/04/13 04:40:31;;;;;;;7.35;4.05;;;9.90;50.10;;;;;;5097638;28;20135;-71
2022/04/13 04:43:00;;;;;;;7.40;3.42;;;9.90;50.10;;;;;;5110062;28;21855;-71
2022/04/13 04:45:26;;;;;;;6.65;3.67;;;9.90;50.10;;;;;;5123807;28;20463;-71
2022/04/13 04:47:53;;;;;;;15.98;4.97;;;10.00;50.20;;;;;;5115322;28;20031;-71
2022/04/13 04:50:21;;;;;;;17.20;4.82;;;10.00;50.60;;;;;;5115395;28;20030;-71
2022/04/13 04:52:48;;;;;;;13.00;4.63;;;10.00;50.70;;;;;;5133838;28;20071;-71
2022/04/13 04:55:19;;;;;;;13.93;4.53;;;10.10;50.70;;;;;;5115370;28;20031;-73
2022/04/13 04:57:46;;;;;;;10.95;4.85;;;10.10;50.70;;;;;;5133268;28;20033;-72
2022/04/13 05:00:17;;;;;;;8.85;4.63;;;10.20;51.40;;;;;;5115217;28;20023;-72
2022/04/13 05:02:43;;;;;;;21.42;5.45;;;10.20;50.90;;;;;;5133836;28;20030;-71
2022/04/13 05:05:09;;;;;;;13.95;5.47;;;10.30;50.80;;;;;;5115249;28;20493;-72
2022/04/13 05:07:35;;;;;;;9.18;4.80;;;10.30;51.20;;;;;;5114838;28;20035;-71
2022/04/13 05:10:01;;;;;;;10.95;5.15;;;10.40;51.30;;;;;;5134046;28;20034;-71
2022/04/13 05:12:27;;;;;;;14.65;5.07;;;10.50;51.50;;;;;;5109832;28;20034;-71
2022/04/13 05:14:55;;;;;;;20.25;5.90;;;10.50;51.60;;;;;;5133294;28;20023;-71
2022/04/13 05:17:22;;;;;;;12.60;4.97;;;10.60;51.40;;;;;;5114905;28;20023;-72
2022/04/13 05:19:48;;;;;;;12.68;5.30;;;10.70;51.30;;;;;;5114930;28;20080;-71
2022/04/13 05:22:15;;;;;;;15.00;5.07;;;10.70;51.30;;;;;;5133311;28;20028;-71
2022/04/13 05:24:41;;;;;;;14.73;5.25;;;10.80;51.30;;;;;;5117209;27;20029;-71
2022/04/13 05:27:08;;;;;;;15.35;5.40;;;10.90;51.30;;;;;;5118886;27;20027;-71
2022/04/13 05:29:34;;;;;;;19.23;5.43;;;11.00;51.30;;;;;;5137313;27;20029;-71
2022/04/13 05:32:00;;;;;;;10.65;5.35;;;11.00;51.10;;;;;;5137251;27;20106;-71
2022/04/13 05:34:26;;;;;;;11.43;4.47;;;11.10;50.80;;;;;;5117265;27;20443;-72
2022/04/13 05:36:51;;;;;;;9.68;5.47;;;11.20;50.70;;;;;;5118442;27;20039;-71
2022/04/13 05:39:17;;;;;;;10.65;5.20;;;11.30;50.70;;;;;;5118227;27;20111;-71
2022/04/13 05:41:43;;;;;;;11.05;5.35;;;11.30;50.60;;;;;;5137093;27;20035;-71
2022/04/13 05:44:09;;;;;;;14.40;5.55;;;11.40;50.50;;;;;;5136991;27;20027;-72
2022/04/13 05:46:34;;;;;;;12.60;5.40;;;11.50;50.50;;;;;;5136881;27;20062;-72
2022/04/13 05:49:01;;;;;;;20.35;7.32;;;11.50;50.40;;;;;;5136618;27;20019;-72
2022/04/13 05:51:26;;;;;;;29.10;7.68;;;11.60;50.50;;;;;;5118036;27;20028;-71
2022/04/13 05:53:52;;;;;;;12.50;6.57;;;11.70;51.00;;;;;;5118390;27;20028;-72
2022/04/13 05:56:18;;;;;;;13.63;5.07;;;11.70;50.80;;;;;;5118290;27;20351;-71
2022/04/13 05:58:44;;;;;;;12.32;5.78;;;11.80;50.60;;;;;;5136954;27;20030;-71
2022/04/13 06:01:10;;;;;;;10.63;5.65;;;11.90;50.70;;;;;;5136263;27;20111;-72
2022/04/13 06:03:36;;;;;;;12.63;5.95;;;11.90;50.40;;;;;;5117996;27;20027;-71
2022/04/13 06:06:01;;;;;;;11.20;5.75;;;12.00;50.30;;;;;;5136371;27;20433;-72
2022/04/13 06:08:27;;;;;;;14.90;7.50;;;12.10;50.40;;;;;;5136106;27;20050;-71
2022/04/13 06:10:53;;;;;;;18.40;7.90;;;12.10;50.30;;;;;;5117848;27;20034;-71
2022/04/13 06:13:18;;;;;;;13.00;6.13;;;12.20;50.10;;;;;;5118079;27;20038;-71
2022/04/13 06:15:44;;;;;;;10.23;5.63;;;12.30;50.00;;;;;;5117575;27;20121;-71
2022/04/13 06:18:11;;;;;;;13.98;6.20;;;12.40;50.00;;;;;;5118716;27;20043;-72
2022/04/13 06:20:37;;;;;;;11.63;5.18;;;12.50;49.90;;;;;;5117586;27;20023;-71
2022/04/13 06:23:03;;;;;;;11.43;6.50;;;12.60;49.70;;;;;;5117677;27;20037;-72
2022/04/13 06:25:29;;;;;;;10.65;5.90;;;12.70;49.50;;;;;;5136010;27;20031;-72
2022/04/13 06:27:55;;;;;;;15.88;6.28;;;12.80;49.40;;;;;;5117929;27;20030;-71
2022/04/13 06:30:21;;;;;;;12.73;6.22;;;12.90;49.40;;;;;;5117551;27;20573;-71
2022/04/13 06:32:47;;;;;;;22.70;6.90;;;13.00;49.30;;;;;;5117460;27;20424;-72
2022/04/13 06:35:17;;;;;;;24.95;6.80;;;13.10;49.20;;;;;;5134902;27;20042;-71
2022/04/13 06:37:47;;;;;;;15.80;7.18;;;13.20;48.90;;;;;;5117527;27;20042;-71
2022/04/13 06:40:14;;;;;;;15.48;7.22;;;13.30;48.50;;;;;;5117107;27;20062;-71
2022/04/13 06:42:40;;;;;;;22.23;7.93;;;13.30;48.30;;;;;;5121004;27;20028;-71
2022/04/13 06:45:12;;;;;;;15.02;8.55;;;13.50;48.10;;;;;;5096987;28;20024;-72
2022/04/13 06:47:38;;;;;;;27.15;9.40;;;13.60;48.10;;;;;;5096730;28;20030;-73
2022/04/13 06:50:05;;;;;;;17.95;9.55;;;13.60;47.70;;;;;;5096998;28;20024;-73
2022/04/13 06:52:35;;;;;;;18.98;9.82;;;13.80;47.50;;;;;;5115621;27;20169;-72
2022/04/13 06:55:01;;;;;;;21.15;10.00;;;13.90;47.20;;;;;;5096321;28;20032;-71
2022/04/13 06:57:27;;;;;;;21.33;9.40;;;14.00;47.00;;;;;;5096541;28;20019;-72
2022/04/13 06:59:53;;;;;;;21.38;8.77;;;14.10;46.80;;;;;;5114667;28;20104;-71
2022/04/13 07:02:18;;;;;;;20.38;9.60;;;14.20;46.40;;;;;;5114757;28;20028;-71
2022/04/13 07:04:44;;;;;;;20.60;9.48;;;14.30;46.10;;;;;;5114831;27;20508;-71
2022/04/13 07:07:10;;;;;;;21.83;9.25;;;14.40;46.10;;;;;;5114929;28;20032;-71
2022/04/13 07:09:36;;;;;;;14.82;7.40;;;14.60;46.30;;;;;;5114630;28;20063;-72
2022/04/13 07:12:03;;;;;;;23.50;9.40;;;14.70;46.10;;;;;;5096171;28;20038;-72
2022/04/13 07:14:29;;;;;;;17.42;9.68;;;14.70;45.60;;;;;;5114781;28;20032;-72
2022/04/13 07:16:55;;;;;;;22.50;8.40;;;14.80;45.30;;;;;;5107784;27;20135;-71
2022/04/13 07:19:20;;;;;;;22.77;7.72;;;14.90;44.90;;;;;;5076036;28;20028;-72
2022/04/13 07:21:46;;;;;;;25.58;8.23;;;15.00;44.60;;;;;;5075832;28;20372;-71
2022/04/13 07:24:12;;;;;;;17.70;6.90;;;15.10;44.40;;;;;;5075080;28;20070;-73
2022/04/13 07:26:38;;;;;;;11.90;6.82;;;15.10;44.20;;;;;;5093905;28;20028;-72
2022/04/13 07:29:04;;;;;;;12.70;7.18;;;15.20;44.30;;;;;;5075725;28;20080;-72
2022/04/13 07:31:31;;;;;;;15.15;7.40;;;15.30;43.90;;;;;;5096397;28;20027;-72
2022/04/13 07:33:57;;;;;;;17.67;7.30;;;15.40;43.60;;;;;;5114318;28;20020;-72
2022/04/13 07:36:23;;;;;;;15.25;7.60;;;15.50;43.60;;;;;;5114383;28;20024;-73
2022/04/13 07:38:50;;;;;;;13.88;7.60;;;15.50;43.30;;;;;;5114688;28;20084;-72
2022/04/13 07:41:16;;;;;;;14.02;7.88;;;15.60;43.20;;;;;;5093351;28;20048;-71
2022/04/13 07:43:43;;;;;;;17.50;8.27;;;15.60;43.20;;;;;;5095771;28;20051;-71
2022/04/13 07:46:10;;;;;;;18.52;8.27;;;15.70;43.00;;;;;;5114056;28;20057;-72
2022/04/13 07:48:36;;;;;;;16.35;8.60;;;15.80;43.00;;;;;;5114204;28;20081;-71
2022/04/13 07:51:04;;;;;;;15.13;7.57;;;15.90;43.00;;;;;;5095865;28;20027;-71
2022/04/13 07:53:32;;;;;;;15.05;8.73;;;15.90;42.90;;;;;;5113610;28;20024;-71
2022/04/13 07:55:58;;;;;;;27.35;9.48;;;16.00;42.80;;;;;;5095353;28;20562;-71
2022/04/13 07:58:26;;;;;;;16.08;7.88;;;16.10;42.70;;;;;;5095570;28;20027;-71
2022/04/13 08:00:52;;;;;;;17.98;8.80;;;16.10;42.50;;;;;;5114105;28;20099;-72
2022/04/13 08:03:17;;;;;;;19.40;10.30;;;16.30;42.40;;;;;;5113523;28;20123;-71
2022/04/13 08:05:43;;;;;;;13.75;8.30;;;16.30;41.70;;;;;;5095663;28;20038;-71
2022/04/13 08:08:09;;;;;;;15.00;8.43;;;16.40;41.90;;;;;;5113984;28;20023;-71
2022/04/13 08:10:37;;;;;;;19.15;8.60;;;16.40;41.80;;;;;;5095715;28;20058;-71
2022/04/13 08:13:03;;;;;;;16.85;8.10;;;16.60;41.60;;;;;;5095404;28;20031;-71
2022/04/13 08:15:29;;;;;;;18.13;8.20;;;16.60;41.40;;;;;;5095385;28;20408;-71
2022/04/13 08:17:55;;;;;;;16.65;7.70;;;16.70;41.30;;;;;;5113674;28;20046;-71
2022/04/13 08:20:21;;;;;;;20.10;8.10;;;16.80;41.30;;;;;;5095526;28;20028;-71
2022/04/13 08:22:47;;;;;;;28.17;8.55;;;16.90;41.30;;;;;;5094881;28;20387;-71
2022/04/13 08:25:13;;;;;;;25.50;8.57;;;16.90;41.40;;;;;;5095004;28;20023;-71
2022/04/13 08:27:39;;;;;;;10.98;6.88;;;17.00;41.30;;;;;;5113528;28;20034;-71
2022/04/13 08:30:06;;;;;;;13.32;7.68;;;17.10;41.30;;;;;;5095383;28;20024;-71
2022/04/13 08:32:32;;;;;;;19.00;8.07;;;17.20;41.00;;;;;;5095387;28;20546;-71
2022/04/13 08:34:58;;;;;;;16.48;8.27;;;17.30;40.60;;;;;;5094557;28;20032;-72
2022/04/13 08:37:29;;;;;;;15.20;7.68;;;17.30;40.50;;;;;;5095033;28;20046;-71
2022/04/13 08:39:55;;;;;;;20.00;8.98;;;17.50;40.50;;;;;;5103607;28;20051;-71
2022/04/13 08:42:41;;;;;;;20.92;9.15;;;17.50;40.30;;;;;;5115300;28;20114;-71
2022/04/13 08:45:23;;;;;;;17.75;10.13;;;17.60;39.90;;;;;;5134144;28;20023;-71
2022/04/13 08:47:56;;;;;;;18.45;8.90;;;17.70;39.70;;;;;;5115465;28;20023;-71
2022/04/13 08:50:26;;;;;;;18.50;8.07;;;17.80;39.70;;;;;;5115608;28;20050;-71
2022/04/13 08:52:57;;;;;;;12.90;7.90;;;17.80;39.50;;;;;;5133785;28;20027;-72
2022/04/13 08:55:23;;;;;;;15.63;8.88;;;17.90;39.60;;;;;;5103582;28;20100;-72
2022/04/13 08:58:11;;;;;;;20.58;7.90;;;17.90;39.40;;;;;;5113135;28;20027;-73
2022/04/13 09:00:41;;;;;;;14.55;7.50;;;18.00;39.50;;;;;;5117809;28;20371;-72
2022/04/13 09:03:41;;;;;;;13.95;8.07;;;18.10;39.50;;;;;;5117875;28;20028;-72
2022/04/13 09:06:08;;;;;;;15.70;7.80;;;18.20;39.40;;;;;;5117756;28;20378;-72
2022/04/13 09:08:52;;;;;;;15.85;8.55;;;18.30;39.30;;;;;;5135494;27;20028;-74
2022/04/13 09:11:22;;;;;;;14.02;7.88;;;18.30;39.00;;;;;;5114938;27;20413;-71
2022/04/13 09:13:49;;;;;;;16.77;8.75;;;18.40;39.00;;;;;;5118410;27;20446;-72
2022/04/13 09:16:16;;;;;;;18.33;8.65;;;18.50;39.10;;;;;;5136712;27;20032;-72
2022/04/13 09:18:45;;;;;;;17.52;9.00;;;18.60;38.60;;;;;;5119104;27;20080;-72
2022/04/13 09:21:13;;;;;;;16.30;8.38;;;18.70;38.20;;;;;;5119035;27;20028;-72
2022/04/13 09:23:41;;;;;;;18.15;8.85;;;18.70;38.50;;;;;;5137391;27;20023;-72
2022/04/13 09:26:08;;;;;;;17.00;7.80;;;18.80;38.20;;;;;;5137469;27;20094;-72
2022/04/13 09:28:37;;;;;;;12.85;7.07;;;19.00;37.90;;;;;;5117029;27;20118;-72
2022/04/13 09:31:03;;;;;;;15.10;8.57;;;19.00;37.90;;;;;;5132201;27;20035;-72
2022/04/13 09:33:30;;;;;;;14.10;8.73;;;19.10;37.30;;;;;;5136255;27;20015;-71
2022/04/13 09:35:55;;;;;;;11.85;8.40;;;19.20;37.30;;;;;;5118659;27;20560;-72
2022/04/13 09:38:21;;;;;;;16.60;9.10;;;19.20;37.30;;;;;;5118678;27;20113;-72
2022/04/13 09:40:50;;;;;;;14.23;7.97;;;19.30;37.30;;;;;;5136945;27;20107;-72
2022/04/13 09:43:19;;;;;;;14.45;7.82;;;19.30;37.60;;;;;;5118983;27;20027;-72
2022/04/13 09:45:46;;;;;;;16.23;7.43;;;19.40;37.60;;;;;;5116438;27;20493;-72
2022/04/13 09:48:17;;;;;;;17.98;9.23;;;19.50;37.60;;;;;;5118766;27;20031;-71
2022/04/13 09:50:44;;;;;;;11.88;8.13;;;19.50;37.20;;;;;;5128014;27;20031;-72
2022/04/13 09:53:11;;;;;;;14.80;8.35;;;19.60;37.40;;;;;;5111808;28;20020;-71
2022/04/13 09:55:44;;;;;;;13.20;8.50;;;19.60;37.50;;;;;;5118649;27;20392;-72
2022/04/13 09:58:15;;;;;;;16.05;8.10;;;19.70;37.60;;;;;;5118668;27;20019;-73
2022/04/13 10:00:42;;;;;;;21.65;8.40;;;19.80;37.20;;;;;;5117917;27;20056;-73
2022/04/13 10:03:10;;;;;;;17.08;8.45;;;19.80;37.10;;;;;;5136893;27;20110;-72
2022/04/13 10:05:36;;;;;;;12.07;7.50;;;19.90;37.20;;;;;;5118578;27;20027;-72
2022/04/13 10:08:03;;;;;;;11.43;7.70;;;19.90;37.00;;;;;;5118402;27;20027;-73
2022/04/13 10:10:29;;;;;;;10.70;7.97;;;19.90;36.90;;;;;;5134708;27;20027;-71
2022/04/13 10:12:55;;;;;;;13.63;8.02;;;20.00;37.30;;;;;;5106521;27;20023;-72
2022/04/13 10:15:21;;;;;;;10.93;6.95;;;20.10;37.20;;;;;;5118103;27;20035;-71
2022/04/13 10:17:46;;;;;;;11.80;7.20;;;20.10;36.80;;;;;;5110726;28;20032;-73
2022/04/13 10:20:12;;;;;;;15.52;8.63;;;20.10;36.70;;;;;;5121970;27;20031;-72
2022/04/13 10:23:00;;;;;;;16.83;9.90;;;20.20;36.80;;;;;;5117607;27;20419;-72
2022/04/13 10:25:27;;;;;;;14.75;9.65;;;20.20;36.70;;;;;;5105649;28;20448;-72
2022/04/13 10:27:55;;;;;;;15.52;9.05;;;20.30;36.90;;;;;;5110963;27;20030;-73
2022/04/13 10:30:36;;;;;;;17.20;9.40;;;20.30;36.70;;;;;;5133261;27;20055;-73
2022/04/13 10:33:02;;;;;;;13.13;8.95;;;20.30;36.70;;;;;;5115930;27;20058;-72
2022/04/13 10:35:29;;;;;;;14.60;10.05;;;20.40;37.00;;;;;;5114980;27;20471;-73
2022/04/13 10:37:55;;;;;;;15.35;10.45;;;20.50;37.10;;;;;;5117464;27;20038;-70
2022/04/13 10:40:23;;;;;;;16.92;9.95;;;20.60;37.00;;;;;;5115873;27;20068;-72
2022/04/13 10:42:52;;;;;;;18.70;9.70;;;20.70;37.10;;;;;;5129925;27;20023;-73
2022/04/13 10:45:18;;;;;;;13.13;8.95;;;20.70;36.90;;;;;;5117667;27;20027;-72
2022/04/13 10:47:57;;;;;;;20.38;10.25;;;20.80;37.10;;;;;;5117387;27;20047;-73
2022/04/13 10:50:48;;;;;;;11.23;8.35;;;20.90;36.50;;;;;;5117587;27;20019;-73
2022/04/13 10:53:55;;;;;;;20.60;9.45;;;21.00;36.80;;;;;;5109415;27;20133;-72
2022/04/13 10:56:27;;;;;;;12.05;8.50;;;21.10;36.60;;;;;;5071512;28;20032;-71
2022/04/13 10:59:06;;;;;;;15.65;9.23;;;21.20;36.60;;;;;;5050214;28;20033;-71
2022/04/13 11:01:42;;;;;;;13.05;8.32;;;21.20;35.90;;;;;;5069637;28;20055;-72
2022/04/13 11:04:09;;;;;;;12.55;9.07;;;21.30;36.20;;;;;;5055156;28;20078;-71
2022/04/13 11:06:36;;;;;;;12.98;8.95;;;21.40;35.90;;;;;;5043729;28;20087;-71
2022/04/13 11:09:07;;;;;;;12.90;8.65;;;21.50;35.60;;;;;;5050686;28;20036;-70
2022/04/13 11:11:37;;;;;;;14.73;8.15;;;21.60;35.80;;;;;;5070860;28;20126;-76
2022/04/13 11:14:22;;;;;;;12.45;8.80;;;21.60;35.70;;;;;;5054342;28;20078;-71
2022/04/13 11:16:52;;;;;;;13.40;9.43;;;21.70;35.20;;;;;;5071056;28;20133;-78
2022/04/13 11:19:20;;;;;;;15.98;8.18;;;21.80;35.40;;;;;;5068751;28;20113;-72
2022/04/13 11:21:51;;;;;;;14.90;7.53;;;21.90;35.00;;;;;;5050578;28;20028;-72
2022/04/13 11:24:33;;;;;;;12.85;7.57;;;22.00;35.00;;;;;;5056409;28;20044;-71
2022/04/13 11:26:59;;;;;;;10.38;7.22;;;22.10;35.00;;;;;;5049544;28;20392;-73
2022/04/13 11:29:33;;;;;;;17.33;7.70;;;22.20;35.00;;;;;;5064910;27;20031;-72
2022/04/13 11:32:05;;;;;;;15.23;8.43;;;22.30;34.80;;;;;;5134547;27;20016;-73
2022/04/13 11:34:35;;;;;;;12.68;8.40;;;22.30;34.30;;;;;;5115737;27;20039;-73
2022/04/13 11:37:03;;;;;;;20.02;8.63;;;22.40;34.20;;;;;;5132759;27;20035;-73
2022/04/13 11:39:49;;;;;;;13.93;8.50;;;22.50;34.20;;;;;;5134515;27;20070;-73
2022/04/13 11:42:21;;;;;;;11.35;8.13;;;22.60;34.30;;;;;;5126659;27;20107;-72
2022/04/13 11:45:04;;;;;;;11.68;7.47;;;22.60;34.30;;;;;;5095591;28;20382;-73
2022/04/13 11:48:03;;;;;;;13.52;7.80;;;22.70;34.20;;;;;;5096459;28;20435;-73
2022/04/13 11:50:35;;;;;;;13.35;7.88;;;22.80;34.10;;;;;;4995679;28;20097;-73
2022/04/13 11:53:10;;;;;;;12.18;7.40;;;22.90;33.90;;;;;;5007754;28;20176;-73
2022/04/13 11:55:39;;;;;;;15.07;8.48;;;23.00;34.70;;;;;;5014232;28;20057;-72
2022/04/13 11:58:07;;;;;;;11.20;7.47;;;23.10;33.80;;;;;;5014674;28;20033;-73
2022/04/13 12:00:44;;;;;;;13.90;7.47;;;23.20;33.50;;;;;;5014630;28;20053;-72
2022/04/13 12:03:15;;;;;;;13.07;7.28;;;23.20;33.30;;;;;;5030917;28;20059;-73
2022/04/13 12:05:44;;;;;;;14.85;7.53;;;23.30;33.20;;;;;;5014600;28;20025;-73
2022/04/13 12:08:15;;;;;;;12.23;7.40;;;23.40;33.30;;;;;;5014510;28;20029;-73
2022/04/13 12:10:46;;;;;;;16.33;9.10;;;23.40;33.30;;;;;;5031161;28;20032;-74
2022/04/13 12:13:12;;;;;;;16.08;7.95;;;23.50;32.50;;;;;;5014384;28;20033;-72
2022/04/13 12:15:51;;;;;;;18.10;8.95;;;23.60;32.80;;;;;;5014363;28;20038;-72
2022/04/13 12:18:21;;;;;;;14.35;8.00;;;23.70;32.80;;;;;;4995272;28;20066;-73
2022/04/13 12:20:48;;;;;;;13.35;8.32;;;23.80;32.50;;;;;;4994715;28;20060;-72
2022/04/13 12:23:25;;;;;;;15.40;7.82;;;23.80;32.50;;;;;;4994644;28;20026;-73
2022/04/13 12:25:56;;;;;;;15.27;8.63;;;23.90;32.80;;;;;;5037389;28;20039;-73
2022/04/13 12:28:23;;;;;;;13.88;8.13;;;24.00;32.80;;;;;;5115124;28;20026;-73
2022/04/13 12:31:06;;;;;;;11.98;7.13;;;24.10;32.70;;;;;;5115654;28;20034;-71
2022/04/13 12:33:33;;;;;;;10.57;8.05;;;24.30;32.80;;;;;;5106454;28;20038;-72
2022/04/13 12:36:09;;;;;;;12.57;7.72;;;24.40;32.30;;;;;;5128683;28;20035;-72
2022/04/13 12:38:37;;;;;;;12.68;7.40;;;24.50;31.80;;;;;;5122575;28;20406;-72
2022/04/13 12:41:18;;;;;;;10.70;6.43;;;24.50;31.60;;;;;;5109504;28;20052;-71
2022/04/13 12:43:59;;;;;;;12.63;6.93;;;24.60;31.60;;;;;;5133763;28;20020;-71
2022/04/13 12:46:28;;;;;;;12.05;6.38;;;24.60;31.10;;;;;;5115365;28;20031;-71